Corinth, Kentucky
Current Conditions -  °F | °C
As of 9:53 PM on Sunday 21 Dec 2014 (Local Time) from KFFT Reporting Station
Clear Clear  
Wind Chill: 25°   Ceiling: Unl
Heat Index: 30°   Visibility: 9mi
Dew Point: 25°   Wind: 5mph
Humidity: 82%   Direction: 90°E
Pressure: 30.11"   Gusts: NA
Location:  38.5°N, 84.56°W
Report Text: KFFT 220253Z AUTO 09004KT 9SM CLR M01/M04 A3011 RMK AO2 SLP202 T10111039 58009
Loading
Personal Weather Stations






























Interactive Weather Map New forecast layout! Learn more

10-Day Weather Forecast

Advertisements
Track Severe Weather on mobile